Time;durP1;ratioP1;P1;durP2;ratioP2;P2;SDS_P1;SDS_P2;PMS_P1;PMS_P2;Temp;Humidity;BMP_temperature;BMP_pressure;BME280_temperature;BME280_humidity;BME280_pressure;Samples;Min_cycle;Max_cycle;Signal;HPM_P1;HPM_P2
2022/05/22 00:00:09;;;;;;;18.50;8.60;;;18.00;58.70;;;11.90;90.82;101721.31;174609;28;1909;-71
2022/05/22 00:00:16;;;;;;;17.99;8.61;;;18.00;58.70;;;11.91;90.62;101719.56;174651;28;1242;-71
2022/05/22 00:00:25;;;;;;;17.60;8.57;;;17.90;58.70;;;11.90;90.87;101718.69;174738;28;918;-71
2022/05/22 00:00:30;;;;;;;16.87;8.55;;;18.00;58.70;;;11.90;91.24;101723.94;174578;28;1539;-71
2022/05/22 00:00:36;;;;;;;15.85;8.48;;;17.90;58.70;;;11.90;90.89;101723.09;174760;28;855;-71
2022/05/22 00:00:43;;;;;;;15.75;8.52;;;17.90;58.70;;;11.89;90.89;101721.38;174740;28;1013;-71
2022/05/22 00:00:49;;;;;;;15.52;8.50;;;17.90;58.70;;;11.89;91.12;101723.97;174752;28;1147;-71
2022/05/22 00:00:55;;;;;;;17.35;8.63;;;17.90;58.70;;;11.89;90.32;101723.97;174726;28;938;-71
2022/05/22 00:01:01;;;;;;;18.02;8.65;;;18.00;58.60;;;11.88;90.68;101722.28;174734;28;874;-71
2022/05/22 00:01:07;;;;;;;18.20;8.73;;;18.00;58.60;;;11.89;90.40;101723.97;174763;28;925;-71
2022/05/22 00:01:15;;;;;;;19.16;9.04;;;17.90;58.60;;;11.88;90.37;101730.13;174735;28;1009;-71
2022/05/22 00:01:21;;;;;;;18.07;9.02;;;18.00;58.60;;;11.88;90.48;101725.75;174728;28;957;-71
2022/05/22 00:01:26;;;;;;;17.77;9.10;;;17.90;58.60;;;11.87;90.95;101724.03;174696;28;937;-71
2022/05/22 00:01:32;;;;;;;17.13;9.10;;;17.90;58.60;;;11.87;91.16;101724.03;174690;28;906;-71
2022/05/22 00:01:41;;;;;;;16.40;9.10;;;17.90;58.70;;;11.87;91.21;101728.44;174739;28;870;-71
2022/05/22 00:01:47;;;;;;;14.76;8.96;;;17.90;58.70;;;11.86;90.75;101722.34;174746;28;1040;-71
2022/05/22 00:01:53;;;;;;;14.88;9.13;;;17.90;58.80;;;11.85;91.25;101729.31;174717;28;1041;-71
2022/05/22 00:01:59;;;;;;;14.68;9.25;;;17.90;58.80;;;11.84;90.71;101729.38;174590;28;1036;-71
2022/05/22 00:02:09;;;;;;;15.38;9.35;;;17.90;58.80;;;11.83;90.79;101725.03;174695;28;918;-71
2022/05/22 00:02:15;;;;;;;17.44;9.32;;;17.90;58.90;;;11.83;90.92;101722.44;174712;28;1148;-71
2022/05/22 00:02:21;;;;;;;20.15;9.40;;;17.90;58.90;;;11.82;91.73;101732.06;174784;28;1023;-72
2022/05/22 00:02:26;;;;;;;20.48;9.35;;;17.90;59.00;;;11.82;91.30;101732.06;174749;28;1057;-72
2022/05/22 00:02:32;;;;;;;20.10;9.27;;;17.90;59.00;;;11.82;91.81;101732.06;174713;28;1064;-71
2022/05/22 00:02:40;;;;;;;21.33;9.45;;;17.90;59.00;;;11.82;91.62;101731.19;174721;28;950;-71
2022/05/22 00:02:46;;;;;;;20.60;9.50;;;17.90;59.00;;;11.82;91.30;101720.72;174745;28;882;-71
2022/05/22 00:02:53;;;;;;;21.00;9.32;;;17.90;59.00;;;11.81;91.36;101732.94;175349;28;1372;-72
2022/05/22 00:02:58;;;;;;;20.63;9.27;;;17.90;59.00;;;11.81;91.48;101730.31;175413;28;969;-71
2022/05/22 00:03:04;;;;;;;23.30;9.27;;;17.90;59.00;;;11.80;91.50;101731.25;175391;28;862;-72
2022/05/22 00:03:10;;;;;;;23.33;9.27;;;17.90;58.90;;;11.80;90.84;101727.78;175444;28;890;-72
2022/05/22 00:03:16;;;;;;;22.65;9.40;;;17.90;58.90;;;11.80;90.82;101728.63;175337;28;1445;-73
2022/05/22 00:03:22;;;;;;;20.27;9.55;;;17.90;58.90;;;11.79;91.22;101732.16;174637;28;1076;-70
2022/05/22 00:03:28;;;;;;;19.95;10.00;;;17.90;58.90;;;11.79;91.65;101726.06;174606;28;1041;-71
2022/05/22 00:03:34;;;;;;;16.65;10.05;;;17.90;58.90;;;11.80;91.64;101733.03;174728;28;858;-73
2022/05/22 00:03:39;;;;;;;16.15;10.07;;;17.90;59.00;;;11.79;91.57;101729.53;174715;28;945;-72
2022/05/22 00:03:45;;;;;;;15.93;10.00;;;17.90;59.00;;;11.79;91.77;101729.53;174738;28;831;-72
2022/05/22 00:03:50;;;;;;;15.85;10.00;;;17.90;59.00;;;11.79;91.79;101739.13;174786;28;842;-70
2022/05/22 00:03:56;;;;;;;16.10;9.90;;;17.90;59.10;;;11.79;91.49;101724.31;174956;28;1096;-70
2022/05/22 00:04:03;;;;;;;16.07;9.87;;;17.90;59.10;;;11.78;91.71;101730.44;175437;28;1076;-70
2022/05/22 00:04:09;;;;;;;17.12;9.98;;;17.90;59.10;;;11.78;91.56;101730.44;175428;28;1004;-69
2022/05/22 00:04:15;;;;;;;16.83;9.87;;;17.80;59.20;;;11.78;92.13;101730.44;175474;28;870;-70
2022/05/22 00:04:23;;;;;;;17.10;9.74;;;17.90;59.20;;;11.78;91.51;101725.22;175469;28;1048;-70
2022/05/22 00:04:29;;;;;;;17.12;9.64;;;17.80;59.20;;;11.78;91.83;101730.44;175414;28;983;-71
2022/05/22 00:04:37;;;;;;;16.35;9.38;;;17.90;59.10;;;11.77;91.58;101728.72;175375;28;925;-70
2022/05/22 00:04:43;;;;;;;16.43;9.32;;;17.80;59.10;;;11.78;91.48;101730.44;175416;28;1045;-70
2022/05/22 00:04:49;;;;;;;17.55;9.52;;;17.80;59.10;;;11.77;91.64;101723.50;175304;28;862;-70
2022/05/22 00:04:54;;;;;;;18.48;9.75;;;17.80;59.10;;;11.75;91.46;101730.53;174692;28;780;-71
2022/05/22 00:05:01;;;;;;;18.93;9.87;;;17.80;59.10;;;11.77;91.79;101727.88;174696;28;1083;-71
2022/05/22 00:05:12;;;;;;;19.24;9.92;;;17.80;59.10;;;11.77;92.07;101722.66;174705;28;1096;-71
2022/05/22 00:05:23;;;;;;;20.04;9.81;;;17.80;59.10;;;11.77;91.71;101725.25;174723;28;1243;-70
2022/05/22 00:05:29;;;;;;;19.00;9.52;;;17.80;59.00;;;11.75;91.34;101725.31;175457;28;1246;-70
2022/05/22 00:05:35;;;;;;;18.70;9.45;;;17.80;59.00;;;11.75;90.85;101722.69;175426;28;1017;-70
2022/05/22 00:05:41;;;;;;;18.35;9.57;;;17.80;58.90;;;11.73;91.00;101732.34;175400;28;981;-71
2022/05/22 00:05:46;;;;;;;17.55;9.60;;;17.80;58.90;;;11.73;90.97;101721.88;175433;28;1048;-70
2022/05/22 00:05:52;;;;;;;17.60;9.60;;;17.80;58.90;;;11.73;91.31;101732.34;175414;28;1100;-70
2022/05/22 00:05:58;;;;;;;17.73;9.80;;;17.80;58.80;;;11.73;91.25;101724.50;175419;28;1092;-71
2022/05/22 00:06:03;;;;;;;17.67;9.82;;;17.80;58.80;;;11.72;91.19;101725.41;175481;28;858;-70
2022/05/22 00:06:09;;;;;;;16.50;9.60;;;17.80;58.80;;;11.72;91.03;101720.19;175446;28;1053;-70
2022/05/22 00:06:15;;;;;;;16.03;9.43;;;17.80;58.70;;;11.72;90.92;101720.19;175483;28;997;-70
2022/05/22 00:06:21;;;;;;;15.45;9.32;;;17.80;58.70;;;11.72;91.11;101722.78;175517;28;914;-70
2022/05/22 00:06:27;;;;;;;15.15;9.27;;;17.80;58.70;;;11.71;90.86;101721.94;174530;28;1352;-70
2022/05/22 00:06:33;;;;;;;14.80;9.05;;;17.80;58.70;;;11.72;90.92;101720.19;174721;28;795;-70
2022/05/22 00:06:38;;;;;;;15.68;9.10;;;17.80;58.70;;;11.70;90.74;101722.84;174721;28;1020;-70
2022/05/22 00:06:44;;;;;;;15.77;9.02;;;17.80;58.70;;;11.72;91.13;101722.78;174732;28;1033;-71
2022/05/22 00:06:51;;;;;;;15.77;9.00;;;17.80;58.70;;;11.71;90.86;101723.72;174757;28;1029;-70
2022/05/22 00:06:57;;;;;;;16.26;9.06;;;17.80;58.70;;;11.71;91.13;101718.47;174734;28;910;-70
2022/05/22 00:07:05;;;;;;;16.77;9.20;;;17.80;58.70;;;11.71;91.14;101718.47;174772;28;938;-70
2022/05/22 00:07:11;;;;;;;16.78;9.13;;;17.80;58.70;;;11.71;91.09;101721.09;174702;28;1007;-70
2022/05/22 00:07:17;;;;;;;16.55;9.10;;;17.80;58.70;;;11.71;91.17;101718.47;174734;28;894;-70
2022/05/22 00:07:23;;;;;;;17.20;9.18;;;17.70;58.70;;;11.70;91.06;101727.22;174722;28;993;-70
2022/05/22 00:07:28;;;;;;;17.73;8.95;;;17.80;58.70;;;11.70;91.18;101720.22;174722;28;1037;-70
2022/05/22 00:07:34;;;;;;;18.02;8.80;;;17.80;58.70;;;11.70;91.33;101716.75;174740;28;871;-70
2022/05/22 00:07:39;;;;;;;18.27;8.90;;;17.70;58.70;;;11.69;90.49;101725.50;174702;28;1021;-70
2022/05/22 00:07:47;;;;;;;18.77;9.07;;;17.70;58.70;;;11.69;90.39;101720.28;174669;28;1060;-70
2022/05/22 00:07:52;;;;;;;18.30;9.00;;;17.80;58.70;;;11.69;90.57;101721.13;174736;28;1081;-70
2022/05/22 00:07:58;;;;;;;17.70;9.20;;;17.80;58.70;;;11.69;91.20;101720.28;174750;28;854;-71
2022/05/22 00:08:05;;;;;;;18.50;9.50;;;17.70;58.70;;;11.69;90.67;101717.66;174719;28;1029;-71
2022/05/22 00:08:10;;;;;;;19.20;9.70;;;17.80;58.70;;;11.68;90.71;101718.56;174734;28;918;-71
2022/05/22 00:08:17;;;;;;;19.15;9.65;;;17.70;58.70;;;11.68;91.27;101719.44;174739;28;902;-71
2022/05/22 00:08:22;;;;;;;19.90;9.50;;;17.70;58.70;;;11.69;90.75;101717.66;174747;28;902;-71
2022/05/22 00:08:28;;;;;;;19.05;9.43;;;17.70;58.70;;;11.69;91.05;101720.28;175426;28;1056;-70
2022/05/22 00:08:34;;;;;;;17.30;9.23;;;17.80;58.70;;;11.68;91.36;101715.97;175435;28;1103;-70
2022/05/22 00:08:39;;;;;;;16.23;8.93;;;17.80;58.70;;;11.68;91.17;101718.56;175489;28;1115;-71
2022/05/22 00:08:45;;;;;;;16.52;8.95;;;17.80;58.70;;;11.68;90.55;101719.44;175482;28;901;-71
2022/05/22 00:08:51;;;;;;;15.88;8.98;;;17.70;58.70;;;11.68;91.23;101713.34;175521;28;1064;-71
2022/05/22 00:08:56;;;;;;;15.77;8.90;;;17.70;58.70;;;11.67;90.82;101717.72;175488;28;988;-71
2022/05/22 00:09:03;;;;;;;15.65;8.80;;;17.70;58.70;;;11.67;90.76;101719.50;175464;28;1044;-71
2022/05/22 00:09:09;;;;;;;16.80;8.96;;;17.70;58.70;;;11.67;90.71;101711.66;175465;28;894;-70
2022/05/22 00:09:15;;;;;;;16.42;8.85;;;17.70;58.80;;;11.68;91.30;101721.19;175451;28;1006;-71
2022/05/22 00:09:22;;;;;;;17.20;9.20;;;17.70;58.80;;;11.67;90.66;101714.25;175548;28;1068;-71
2022/05/22 00:09:30;;;;;;;17.30;9.27;;;17.70;58.80;;;11.66;91.01;101715.16;175490;28;934;-71
2022/05/22 00:09:37;;;;;;;17.73;9.60;;;17.70;58.90;;;11.67;91.06;101716.88;175486;28;1059;-71
2022/05/22 00:09:43;;;;;;;18.82;9.76;;;17.70;58.90;;;11.67;91.71;101727.34;175434;28;914;-71
2022/05/22 00:09:48;;;;;;;19.53;9.80;;;17.70;59.00;;;11.66;91.73;101716.00;175385;28;1103;-70
2022/05/22 00:09:54;;;;;;;19.20;9.75;;;17.70;59.10;;;11.66;91.86;101718.63;174599;28;1049;-71
2022/05/22 00:10:01;;;;;;;19.40;9.73;;;17.70;59.10;;;11.66;91.10;101715.16;174730;28;854;-71
2022/05/22 00:10:08;;;;;;;19.90;9.60;;;17.70;59.20;;;11.66;91.94;101722.97;174774;28;977;-71
2022/05/22 00:10:15;;;;;;;18.54;9.54;;;17.70;59.20;;;11.66;91.49;101722.97;174695;28;973;-71
2022/05/22 00:10:20;;;;;;;18.34;9.76;;;17.70;59.30;;;11.66;92.20;101712.53;174640;28;1174;-71
2022/05/22 00:10:26;;;;;;;19.42;9.88;;;17.70;59.30;;;11.65;91.84;101716.91;173941;28;879;-71
2022/05/22 00:10:33;;;;;;;18.88;9.93;;;17.70;59.40;;;11.66;91.47;101721.25;174009;28;878;-71
2022/05/22 00:10:39;;;;;;;19.17;9.93;;;17.70;59.40;;;11.66;92.19;101717.75;174027;28;1012;-71
2022/05/22 00:10:44;;;;;;;20.62;10.20;;;17.70;59.40;;;11.65;92.27;101718.66;174016;28;1049;-71
2022/05/22 00:10:50;;;;;;;21.17;10.27;;;17.70;59.50;;;11.64;92.12;101717.84;173981;28;1009;-71
2022/05/22 00:10:56;;;;;;;20.47;10.47;;;17.70;59.50;;;11.64;92.34;101717.84;174028;28;918;-71
2022/05/22 00:11:02;;;;;;;22.45;10.95;;;17.70;59.50;;;11.63;92.52;101715.28;174016;28;1077;-71
2022/05/22 00:11:07;;;;;;;22.43;11.47;;;17.70;59.50;;;11.64;91.89;101722.19;174034;28;859;-71
2022/05/22 00:11:13;;;;;;;22.55;11.68;;;17.70;59.50;;;11.63;92.32;101720.50;174058;28;922;-71
2022/05/22 00:11:19;;;;;;;21.75;11.90;;;17.70;59.50;;;11.63;92.23;101713.50;174009;28;1025;-71
2022/05/22 00:11:25;;;;;;;22.23;12.00;;;17.70;59.50;;;11.63;92.27;101716.09;174033;28;925;-71
2022/05/22 00:11:31;;;;;;;20.57;11.70;;;17.70;59.50;;;11.63;91.84;101717.88;174011;28;714;-70
2022/05/22 00:11:37;;;;;;;19.05;11.23;;;17.70;59.50;;;11.62;92.78;101714.41;174027;28;934;-71
2022/05/22 00:11:43;;;;;;;18.20;10.77;;;17.70;59.50;;;11.62;91.85;101716.16;174022;28;1164;-71
2022/05/22 00:11:49;;;;;;;18.94;10.66;;;17.70;59.50;;;11.62;92.15;101710.91;174012;28;966;-71
2022/05/22 00:11:56;;;;;;;19.23;10.52;;;17.70;59.50;;;11.63;92.15;101715.28;174606;28;982;-71
2022/05/22 00:12:04;;;;;;;19.92;10.50;;;17.70;59.50;;;11.63;92.17;101712.66;174708;28;990;-71
2022/05/22 00:12:11;;;;;;;19.71;10.33;;;17.70;59.60;;;11.61;92.59;101714.44;173813;28;1408;-71
2022/05/22 00:12:17;;;;;;;17.48;9.92;;;17.70;59.60;;;11.60;92.97;101718.81;174022;28;926;-71
2022/05/22 00:12:23;;;;;;;14.87;9.50;;;17.70;59.60;;;11.61;92.76;101719.69;174191;28;808;-71
2022/05/22 00:12:29;;;;;;;14.02;9.40;;;17.60;59.70;;;11.60;92.50;101710.97;174733;28;1316;-70
2022/05/22 00:12:35;;;;;;;14.77;9.65;;;17.70;59.70;;;11.60;92.26;101718.81;174744;28;907;-71
2022/05/22 00:12:42;;;;;;;15.73;9.80;;;17.70;59.70;;;11.61;92.84;101717.06;174754;28;902;-71
2022/05/22 00:12:48;;;;;;;17.22;9.92;;;17.70;59.70;;;11.59;92.74;101715.34;174729;28;1016;-71
2022/05/22 00:12:54;;;;;;;19.83;10.30;;;17.60;59.70;;;11.59;92.85;101720.59;174758;28;886;-71
2022/05/22 00:13:01;;;;;;;20.05;10.20;;;17.60;59.80;;;11.59;92.50;101717.97;174711;28;930;-70
2022/05/22 00:13:07;;;;;;;20.30;10.20;;;17.70;59.80;;;11.59;92.58;101715.34;174735;28;985;-70
2022/05/22 00:13:12;;;;;;;19.25;9.93;;;17.70;59.80;;;11.59;92.60;101714.50;174755;28;882;-70
2022/05/22 00:13:18;;;;;;;18.30;9.93;;;17.60;59.80;;;11.58;93.22;101718.88;174754;28;970;-70
2022/05/22 00:13:24;;;;;;;16.58;9.80;;;17.70;59.80;;;11.59;92.80;101717.09;174698;28;780;-70
2022/05/22 00:13:30;;;;;;;16.13;10.00;;;17.70;59.80;;;11.58;92.85;101713.66;174729;28;910;-70
2022/05/22 00:13:35;;;;;;;17.50;10.00;;;17.70;59.80;;;11.57;92.61;101711.94;174696;28;1041;-70
2022/05/22 00:13:41;;;;;;;18.50;10.20;;;17.60;59.80;;;11.58;93.12;101713.66;174641;28;891;-70
2022/05/22 00:13:47;;;;;;;19.27;10.25;;;17.70;59.80;;;11.57;92.85;101717.16;174752;28;814;-70
2022/05/22 00:13:52;;;;;;;20.40;10.27;;;17.60;59.80;;;11.58;92.51;101712.78;174747;28;866;-70
2022/05/22 00:13:58;;;;;;;20.83;10.27;;;17.70;59.80;;;11.57;93.03;101717.16;174700;28;965;-70
2022/05/22 00:14:04;;;;;;;20.25;10.38;;;17.70;59.80;;;11.56;92.55;101715.47;174646;28;1021;-70
2022/05/22 00:14:13;;;;;;;18.75;10.30;;;17.70;59.80;;;11.57;92.92;101716.31;174696;28;1088;-70
2022/05/22 00:14:19;;;;;;;18.76;10.31;;;17.70;59.80;;;11.56;92.28;101717.19;174744;28;1242;-71
2022/05/22 00:14:28;;;;;;;18.38;10.30;;;17.70;59.80;;;11.55;92.80;101712.88;174725;28;981;-71
2022/05/22 00:14:35;;;;;;;18.00;10.07;;;17.60;59.80;;;11.54;92.86;101712.06;174672;28;1059;-71
2022/05/22 00:14:41;;;;;;;18.66;10.22;;;17.60;59.80;;;11.54;93.50;101709.44;174707;28;992;-71
2022/05/22 00:14:46;;;;;;;18.20;10.38;;;17.60;59.80;;;11.54;93.25;101714.66;174623;28;1002;-71
2022/05/22 00:14:52;;;;;;;18.13;10.30;;;17.60;59.80;;;11.54;92.89;101711.19;175332;28;1188;-71
2022/05/22 00:14:58;;;;;;;18.53;10.20;;;17.60;59.80;;;11.54;93.12;101712.06;175410;28;976;-71
2022/05/22 00:15:06;;;;;;;18.42;9.93;;;17.60;59.80;;;11.54;92.79;101705.97;175411;28;949;-71
2022/05/22 00:15:16;;;;;;;18.03;9.57;;;17.60;59.80;;;11.54;92.77;101711.19;175414;28;1177;-71
2022/05/22 00:15:22;;;;;;;18.79;9.54;;;17.60;59.80;;;11.54;93.10;101712.06;175423;28;1270;-71
2022/05/22 00:15:28;;;;;;;18.48;9.48;;;17.70;59.90;;;11.54;93.11;101721.63;175410;28;1057;-71
2022/05/22 00:15:37;;;;;;;17.73;9.57;;;17.60;59.90;;;11.53;92.90;101710.31;175398;28;1092;-71
2022/05/22 00:16:36;;;;;;;16.87;9.60;;;17.60;59.90;;;11.53;92.59;101715.56;175454;28;902;-71
2022/05/22 00:16:37;;;;;;;17.77;9.46;;;17.60;60.00;;;11.53;93.13;101712.94;175396;28;1186;-71
2022/05/22 00:16:46;;;;;;;17.79;9.29;;;17.60;60.10;;;11.53;92.86;101715.56;175402;28;1096;-71
2022/05/22 00:16:53;;;;;;;18.99;9.44;;;17.60;60.10;;;11.53;93.11;101712.94;175718;28;1155;-71
2022/05/22 00:16:59;;;;;;;18.45;9.35;;;17.60;60.10;;;11.53;93.30;101720.78;175468;28;946;-71
2022/05/22 00:17:06;;;;;;;18.23;9.40;;;17.60;60.10;;;11.53;93.43;101710.31;175480;28;862;-71
2022/05/22 00:17:12;;;;;;;18.35;9.42;;;17.60;60.10;;;11.53;93.04;101712.94;174698;28;979;-71
2022/05/22 00:17:18;;;;;;;16.93;9.23;;;17.60;60.10;;;11.52;93.66;101710.38;174719;28;981;-71
2022/05/22 00:17:24;;;;;;;17.13;9.30;;;17.60;60.10;;;11.53;93.02;101715.56;174701;28;1229;-71
2022/05/22 00:17:30;;;;;;;17.25;9.45;;;17.60;60.10;;;11.52;93.24;101708.63;174692;28;1045;-71
2022/05/22 00:17:35;;;;;;;18.25;9.60;;;17.60;60.10;;;11.52;93.10;101708.63;174705;28;918;-71
2022/05/22 00:17:43;;;;;;;17.45;9.60;;;17.60;60.10;;;11.51;93.91;101706.91;174721;28;930;-71
2022/05/22 00:17:49;;;;;;;18.07;9.67;;;17.60;60.10;;;11.52;93.30;101712.97;174720;28;1167;-71
2022/05/22 00:17:55;;;;;;;17.13;9.73;;;17.60;60.10;;;11.51;93.55;101714.75;174735;28;1052;-71
2022/05/22 00:18:00;;;;;;;17.15;9.75;;;17.60;60.10;;;11.52;93.33;101711.22;174706;28;1120;-71
2022/05/22 00:18:06;;;;;;;16.65;9.75;;;17.60;60.10;;;11.52;93.18;101713.84;174615;28;977;-71
2022/05/22 00:18:12;;;;;;;18.47;9.87;;;17.60;60.10;;;11.51;93.18;101712.16;174696;28;1155;-71
2022/05/22 00:18:18;;;;;;;18.83;10.10;;;17.60;60.10;;;11.51;93.95;101712.16;174698;28;1100;-71
2022/05/22 00:18:23;;;;;;;19.35;10.05;;;17.60;60.10;;;11.51;93.47;101714.75;174737;28;922;-71
2022/05/22 00:18:29;;;;;;;20.33;10.00;;;17.60;60.10;;;11.52;93.50;101713.84;174615;28;1174;-71
2022/05/22 00:18:35;;;;;;;19.47;9.80;;;17.60;60.10;;;11.52;93.57;101711.22;174542;28;1229;-71
2022/05/22 00:18:40;;;;;;;18.85;9.80;;;17.60;60.10;;;11.51;93.73;101709.53;174705;28;1084;-71
2022/05/22 00:18:46;;;;;;;18.00;9.57;;;17.60;60.10;;;11.51;93.50;101712.16;174720;28;990;-71
2022/05/22 00:18:52;;;;;;;16.90;9.52;;;17.60;60.20;;;11.52;93.64;101708.63;174627;28;974;-71
2022/05/22 00:18:57;;;;;;;16.20;9.60;;;17.60;60.10;;;11.52;93.39;101707.75;173688;28;748;-71
2022/05/22 00:19:26;;;;;;;16.15;9.73;;;17.60;60.20;;;11.53;93.16;101706.88;173877;28;1045;-71
2022/05/22 00:19:32;;;;;;;15.88;9.96;;;17.60;60.20;;;11.53;93.54;101718.16;175407;28;1249;-71
2022/05/22 00:19:39;;;;;;;18.67;10.30;;;17.60;60.30;;;11.52;93.46;101711.22;175486;28;890;-71
2022/05/22 00:19:45;;;;;;;17.55;10.30;;;17.60;60.30;;;11.52;93.43;101713.84;175371;28;994;-70
2022/05/22 00:19:50;;;;;;;18.63;10.70;;;17.60;60.20;;;11.51;93.93;101709.53;175387;28;855;-70
2022/05/22 00:19:56;;;;;;;19.58;11.02;;;17.60;60.30;;;11.53;93.65;101709.50;175343;28;989;-71
2022/05/22 00:20:04;;;;;;;19.52;11.13;;;17.60;60.30;;;11.52;93.42;101711.22;175316;28;1917;-71
2022/05/22 00:20:12;;;;;;;19.22;10.87;;;17.60;60.20;;;11.53;94.14;101715.56;174543;28;1001;-70
2022/05/22 00:20:18;;;;;;;17.70;10.37;;;17.60;60.20;;;11.52;93.44;101713.84;174586;28;1020;-70
2022/05/22 00:20:24;;;;;;;16.30;10.13;;;17.60;60.20;;;11.52;94.23;101710.38;174633;28;981;-71
2022/05/22 00:20:29;;;;;;;16.00;10.03;;;17.60;60.20;;;11.52;93.83;101716.47;173853;28;907;-71
2022/05/22 00:20:35;;;;;;;16.90;10.05;;;17.60;60.30;;;11.53;93.37;101710.31;173995;28;1053;-71
2022/05/22 00:20:41;;;;;;;16.52;10.20;;;17.60;60.30;;;11.53;93.51;101717.31;174027;28;974;-70
2022/05/22 00:20:46;;;;;;;17.10;10.30;;;17.60;60.30;;;11.53;93.50;101714.72;174017;28;977;-70
2022/05/22 00:20:52;;;;;;;17.13;10.25;;;17.60;60.30;;;11.53;93.86;101710.31;174069;28;1109;-70
2022/05/22 00:20:58;;;;;;;16.95;10.25;;;17.60;60.30;;;11.52;94.09;101707.75;174024;28;914;-71
2022/05/22 00:21:03;;;;;;;16.37;10.30;;;17.60;60.30;;;11.54;93.23;101712.06;174035;28;910;-71
2022/05/22 00:21:09;;;;;;;15.98;10.18;;;17.60;60.30;;;11.53;93.45;101709.50;174035;28;1003;-71
2022/05/22 00:21:15;;;;;;;16.02;10.05;;;17.60;60.30;;;11.54;93.58;101717.28;174026;28;954;-71
2022/05/22 00:21:20;;;;;;;16.53;10.03;;;17.60;60.30;;;11.53;93.80;101715.56;174073;28;784;-71
2022/05/22 00:21:27;;;;;;;17.20;10.00;;;17.60;60.30;;;11.54;93.58;101719.03;174039;28;1045;-71
2022/05/22 00:21:35;;;;;;;17.05;10.00;;;17.60;60.30;;;11.53;93.55;101710.31;174046;28;1073;-71
2022/05/22 00:21:42;;;;;;;17.60;10.30;;;17.60;60.30;;;11.54;93.61;101717.28;174048;28;910;-71
2022/05/22 00:21:49;;;;;;;18.08;10.40;;;17.60;60.30;;;11.54;94.09;101717.28;174031;28;994;-71
2022/05/22 00:21:55;;;;;;;18.03;10.40;;;17.60;60.30;;;11.54;93.13;101712.06;173993;28;1168;-71
2022/05/22 00:22:02;;;;;;;18.37;10.53;;;17.60;60.30;;;11.53;93.99;101712.94;174035;28;867;-71
2022/05/22 00:22:08;;;;;;;18.16;10.70;;;17.60;60.30;;;11.54;93.89;101709.44;174406;28;1063;-71
2022/05/22 00:22:14;;;;;;;19.17;11.10;;;17.60;60.30;;;11.54;93.43;101711.19;174662;28;847;-71
2022/05/22 00:22:20;;;;;;;19.48;11.48;;;17.60;60.30;;;11.54;94.01;101712.06;174703;28;847;-71
2022/05/22 00:22:26;;;;;;;18.00;11.60;;;17.60;60.30;;;11.55;93.50;101711.13;174710;28;1065;-71
2022/05/22 00:22:32;;;;;;;17.37;11.57;;;17.60;60.30;;;11.55;93.59;101711.13;175452;28;859;-71
2022/05/22 00:22:38;;;;;;;16.67;11.33;;;17.60;60.30;;;11.56;93.64;101712.84;175459;28;1039;-71
2022/05/22 00:22:45;;;;;;;16.02;11.15;;;17.60;60.30;;;11.56;93.40;101718.06;175443;28;918;-71
2022/05/22 00:22:50;;;;;;;16.07;11.03;;;17.60;60.30;;;11.56;93.39;101714.59;175436;28;937;-71
2022/05/22 00:22:56;;;;;;;16.85;11.02;;;17.60;60.30;;;11.56;93.34;101714.59;175434;28;835;-71
2022/05/22 00:23:02;;;;;;;16.90;10.88;;;17.60;60.30;;;11.55;94.18;101718.97;175455;28;1033;-71
2022/05/22 00:23:07;;;;;;;17.27;10.90;;;17.60;60.30;;;11.56;94.09;101715.47;175395;28;950;-71
2022/05/22 00:23:13;;;;;;;17.20;10.93;;;17.60;60.30;;;11.56;93.61;101710.22;175413;28;1029;-71
2022/05/22 00:23:19;;;;;;;17.40;11.07;;;17.60;60.30;;;11.56;93.80;101706.75;174565;28;931;-71
2022/05/22 00:23:24;;;;;;;17.63;11.23;;;17.60;60.30;;;11.57;93.57;101711.09;174732;28;1033;-71
2022/05/22 00:23:33;;;;;;;18.05;11.30;;;17.60;60.30;;;11.57;93.92;101711.94;174702;28;1033;-71
2022/05/22 00:23:38;;;;;;;18.57;11.23;;;17.60;60.30;;;11.58;93.45;101713.66;174683;28;1079;-71
2022/05/22 00:23:45;;;;;;;18.27;11.03;;;17.60;60.30;;;11.57;93.70;101717.16;174654;28;820;-71
2022/05/22 00:23:51;;;;;;;17.88;10.70;;;17.60;60.30;;;11.59;93.70;101714.50;174713;28;1156;-71
2022/05/22 00:23:56;;;;;;;17.90;10.55;;;17.60;60.30;;;11.58;93.96;101711.03;174702;28;1104;-71
2022/05/22 00:24:04;;;;;;;18.00;10.53;;;17.60;60.40;;;11.59;93.93;101717.97;174719;28;914;-71
2022/05/22 00:24:13;;;;;;;18.20;10.90;;;17.60;60.40;;;11.59;93.77;101715.34;174562;28;1144;-71
2022/05/22 00:24:25;;;;;;;18.77;11.30;;;17.60;60.40;;;11.61;93.40;101717.94;174668;28;866;-71
2022/05/22 00:24:31;;;;;;;19.30;11.46;;;17.60;60.40;;;11.62;93.42;101713.53;174686;28;1276;-71
2022/05/22 00:24:40;;;;;;;20.10;11.80;;;17.60;60.30;;;11.62;93.66;101717.00;174668;28;1089;-71
2022/05/22 00:24:46;;;;;;;19.03;11.97;;;17.60;60.30;;;11.62;93.26;101717.00;174709;28;1069;-71
2022/05/22 00:24:52;;;;;;;18.67;11.95;;;17.60;60.30;;;11.62;93.90;101718.75;174681;28;1108;-71
2022/05/22 00:24:58;;;;;;;18.30;11.93;;;17.60;60.30;;;11.62;93.33;101718.75;174637;28;935;-71
2022/05/22 00:25:06;;;;;;;16.63;11.60;;;17.60;60.20;;;11.62;93.44;101714.41;174658;28;942;-71
2022/05/22 00:25:12;;;;;;;17.27;11.17;;;17.60;60.20;;;11.63;93.29;101715.28;174708;28;974;-71
2022/05/22 00:25:18;;;;;;;18.58;11.30;;;17.60;60.20;;;11.64;93.98;101719.59;175092;28;1080;-71
2022/05/22 00:25:24;;;;;;;19.48;11.52;;;17.60;60.20;;;11.63;93.51;101721.34;175444;28;843;-71
2022/05/22 00:25:30;;;;;;;19.45;11.75;;;17.60;60.20;;;11.63;93.25;101715.28;175414;28;977;-71
2022/05/22 00:25:35;;;;;;;20.33;12.00;;;17.70;60.20;;;11.64;93.68;101716.97;175415;28;1108;-71
2022/05/22 00:25:41;;;;;;;19.95;12.05;;;17.60;60.20;;;11.64;93.02;101716.97;175436;28;1032;-71
2022/05/22 00:25:47;;;;;;;19.93;11.97;;;17.60;60.20;;;11.64;93.39;101711.75;175314;28;910;-71
2022/05/22 00:25:56;;;;;;;19.35;11.68;;;17.60;60.20;;;11.66;93.34;101715.16;175431;28;1048;-71
2022/05/22 00:26:01;;;;;;;19.44;11.66;;;17.70;60.20;;;11.64;93.14;101712.59;175380;28;1076;-71
2022/05/22 00:26:07;;;;;;;17.95;11.60;;;17.70;60.20;;;11.65;93.62;101711.69;175424;28;905;-71
2022/05/22 00:26:13;;;;;;;16.83;11.50;;;17.70;60.20;;;11.66;93.33;101720.38;175405;28;1146;-71
2022/05/22 00:26:19;;;;;;;16.25;11.43;;;17.70;60.20;;;11.65;93.50;101714.31;175413;28;1057;-71
2022/05/22 00:26:24;;;;;;;16.67;11.43;;;17.70;60.20;;;11.66;93.37;101710.78;175405;28;977;-71
2022/05/22 00:26:30;;;;;;;17.17;11.43;;;17.70;60.20;;;11.66;93.24;101712.53;175353;28;997;-71
2022/05/22 00:26:36;;;;;;;18.27;11.55;;;17.70;60.20;;;11.67;93.45;101711.66;174597;28;879;-71
2022/05/22 00:26:42;;;;;;;19.73;11.73;;;17.70;60.20;;;11.67;93.19;101716.88;174693;28;1057;-71
2022/05/22 00:26:48;;;;;;;20.03;11.60;;;17.70;60.20;;;11.67;92.96;101711.66;174727;28;763;-71
2022/05/22 00:26:54;;;;;;;20.03;11.83;;;17.70;60.20;;;11.68;92.80;101713.34;174788;28;887;-72
2022/05/22 00:27:02;;;;;;;20.33;12.13;;;17.70;60.20;;;11.68;93.29;101713.34;174745;28;1038;-71
2022/05/22 00:27:07;;;;;;;20.50;12.00;;;17.70;60.20;;;11.68;93.01;101708.13;174752;28;921;-71
2022/05/22 00:27:13;;;;;;;19.50;12.00;;;17.70;60.20;;;11.67;93.63;101711.66;174723;28;874;-71
2022/05/22 00:27:19;;;;;;;19.55;12.13;;;17.70;60.20;;;11.67;93.84;101715.09;174685;28;985;-71
2022/05/22 00:27:25;;;;;;;19.07;12.00;;;17.70;60.30;;;11.68;93.50;101718.56;174778;28;938;-71
2022/05/22 00:27:30;;;;;;;18.98;11.70;;;17.70;60.20;;;11.69;93.77;101720.28;174708;28;859;-71
2022/05/22 00:27:39;;;;;;;18.90;11.98;;;17.70;60.20;;;11.69;93.06;101712.44;174742;28;930;-71
2022/05/22 00:27:45;;;;;;;19.23;12.01;;;17.70;60.20;;;11.69;93.49;101715.03;174689;28;1086;-71